Time;durP1;ratioP1;P1;durP2;ratioP2;P2;SDS_P1;SDS_P2;PMS_P1;PMS_P2;Temp;Humidity;BMP_temperature;BMP_pressure;BME280_temperature;BME280_humidity;BME280_pressure;Samples;Min_cycle;Max_cycle;Signal;HPM_P1;HPM_P2
2022/07/18 00:02:00;;;;;;;;;;;;;;;16.88;53.25;151896.05;1692365;84;20144;-63
2022/07/18 00:04:27;;;;;;;;;;;;;;;16.87;53.27;151893.44;1692073;84;20425;-63
2022/07/18 00:06:54;;;;;;;;;;;;;;;16.84;53.29;151885.62;1692394;84;21059;-63
2022/07/18 00:09:23;;;;;;;;;;;;;;;16.82;53.34;151880.42;1692092;84;20172;-63
2022/07/18 00:11:51;;;;;;;;;;;;;;;16.78;53.43;151870.00;1668307;84;20338;-62
2022/07/18 00:14:19;;;;;;;;;;;;;;;16.74;53.63;151859.58;1660893;86;20180;-62
2022/07/18 00:16:47;;;;;;;;;;;;;;;16.72;53.82;151854.37;1661113;86;20164;-62
2022/07/18 00:19:14;;;;;;;;;;;;;;;16.75;53.97;151862.19;1689017;83;21263;-62
2022/07/18 00:21:42;;;;;;;;;;;;;;;16.73;54.09;151856.98;1692483;84;20120;-62
2022/07/18 00:24:10;;;;;;;;;;;;;;;16.72;54.29;151854.37;1692123;84;20469;-62
2022/07/18 00:26:37;;;;;;;;;;;;;;;16.73;54.44;151858.25;1692186;84;20418;-63
2022/07/18 00:29:04;;;;;;;;;;;;;;;16.73;54.53;151856.98;1692435;84;20193;-63
2022/07/18 00:31:31;;;;;;;;;;;;;;;16.72;54.43;151855.66;1692202;84;21135;-62
2022/07/18 00:33:59;;;;;;;;;;;;;;;16.75;54.16;151863.47;1692333;84;20176;-62
2022/07/18 00:36:25;;;;;;;;;;;;;;;16.74;53.96;151860.86;1692160;84;20407;-62
2022/07/18 00:38:52;;;;;;;;;;;;;;;16.69;54.04;151846.52;1692056;84;20765;-62
2022/07/18 00:41:19;;;;;;;;;;;;;;;16.66;54.15;151838.70;1692155;84;20209;-62
2022/07/18 00:43:46;;;;;;;;;;;;;;;16.64;54.37;151834.81;1692217;84;21162;-62
2022/07/18 00:46:13;;;;;;;;;;;;;;;16.63;54.49;151830.89;1692060;84;20165;-61
2022/07/18 00:48:41;;;;;;;;;;;;;;;16.61;54.55;151827.00;1692487;84;32582;-61
2022/07/18 00:51:09;;;;;;;;;;;;;;;16.59;54.66;151821.80;1691958;84;20481;-62
2022/07/18 00:53:37;;;;;;;;;;;;;;;16.54;54.76;151810.06;1692280;84;20146;-62
2022/07/18 00:56:04;;;;;;;;;;;;;;;16.51;55.07;151802.25;1692154;84;21135;-63
2022/07/18 00:58:31;;;;;;;;;;;;;;;16.51;55.26;151800.92;1691903;84;20110;-63
2022/07/18 01:03:43;;;;;;;;;;;;;;;16.47;55.26;151793.11;1692101;84;20196;-63
2022/07/18 01:06:09;;;;;;;;;;;;;;;16.46;55.12;151790.50;1691905;83;20173;-63
2022/07/18 01:08:37;;;;;;;;;;;;;;;16.44;55.00;151783.97;1692172;84;21254;-63
2022/07/18 01:11:05;;;;;;;;;;;;;;;16.38;55.06;151768.34;1678347;84;20127;-63
2022/07/18 01:13:32;;;;;;;;;;;;;;;16.35;55.17;151760.53;1660759;86;20179;-63
2022/07/18 01:15:58;;;;;;;;;;;;;;;16.32;55.27;151755.33;1660718;86;20179;-63
2022/07/18 01:18:25;;;;;;;;;;;;;;;16.30;55.45;151748.80;1661944;85;20184;-63
2022/07/18 01:20:52;;;;;;;;;;;;;;;16.28;55.58;151744.91;1662788;86;22087;-63
2022/07/18 01:23:18;;;;;;;;;;;;;;;16.25;55.76;151737.11;1662486;86;20163;-62
2022/07/18 01:25:46;;;;;;;;;;;;;;;16.22;55.98;151729.25;1662652;86;20472;-61
2022/07/18 01:28:13;;;;;;;;;;;;;;;16.17;56.15;151716.22;1662555;86;20507;-61
2022/07/18 01:30:43;;;;;;;;;;;;;;;16.14;56.39;151708.42;1662728;86;20393;-61
2022/07/18 01:33:09;;;;;;;;;;;;;;;16.07;56.64;151691.47;1662688;86;22138;-61
2022/07/18 01:35:36;;;;;;;;;;;;;;;16.01;56.87;151677.13;1662721;86;20393;-62
2022/07/18 01:38:03;;;;;;;;;;;;;;;15.94;57.17;151658.91;1662431;85;20175;-61
2022/07/18 01:40:29;;;;;;;;;;;;;;;15.90;57.48;151648.50;1662264;86;20152;-63
2022/07/18 01:42:56;;;;;;;;;;;;;;;15.90;57.66;151649.78;1662488;86;20179;-62
2022/07/18 01:45:23;;;;;;;;;;;;;;;15.88;57.82;151643.25;1662487;85;21144;-61
2022/07/18 01:47:50;;;;;;;;;;;;;;;15.82;57.96;151627.63;1662516;86;20467;-62
2022/07/18 01:50:17;;;;;;;;;;;;;;;15.69;58.27;151596.34;1668054;84;20179;-62
2022/07/18 01:52:44;;;;;;;;;;;;;;;15.66;58.63;151588.55;1686823;85;20179;-63
2022/07/18 01:55:11;;;;;;;;;;;;;;;15.63;58.87;151580.73;1686791;85;20210;-63
2022/07/18 01:57:38;;;;;;;;;;;;;;;15.55;59.24;151559.88;1686860;85;21326;-63
2022/07/18 02:00:07;;;;;;;;;;;;;;;15.51;59.61;151549.47;1686854;84;20174;-63
2022/07/18 02:02:33;;;;;;;;;;;;;;;15.49;59.77;151544.25;1687155;83;20175;-62
2022/07/18 02:05:00;;;;;;;;;;;;;;;15.44;59.94;151533.84;1686731;84;20206;-62
2022/07/18 02:07:31;;;;;;;;;;;;;;;15.41;60.25;151526.05;1686806;85;20215;-62
2022/07/18 02:09:59;;;;;;;;;;;;;;;15.37;60.66;151514.31;1686733;85;21185;-62
2022/07/18 02:12:25;;;;;;;;;;;;;;;15.31;60.93;151501.30;1717055;83;20269;-64
2022/07/18 02:14:52;;;;;;;;;;;;;;;15.28;61.28;151492.17;1717085;83;20196;-62
2022/07/18 02:17:19;;;;;;;;;;;;;;;15.23;61.80;151479.16;1714667;83;20184;-63
2022/07/18 02:19:46;;;;;;;;;;;;;;;15.15;62.26;151459.63;1697187;84;20431;-63
2022/07/18 02:22:13;;;;;;;;;;;;;;;15.12;62.56;151451.83;1697101;84;21150;-63
2022/07/18 02:24:39;;;;;;;;;;;;;;;15.08;63.10;151442.69;1697529;84;20103;-63
2022/07/18 02:27:06;;;;;;;;;;;;;;;15.08;63.84;151442.69;1697171;83;20183;-62
2022/07/18 02:29:33;;;;;;;;;;;;;;;15.07;64.41;151438.81;1697197;84;20510;-62
2022/07/18 02:32:01;;;;;;;;;;;;;;;15.08;64.67;151442.69;1697364;84;20412;-62
2022/07/18 02:34:28;;;;;;;;;;;;;;;15.15;64.83;151460.95;1697052;84;21270;-63
2022/07/18 02:36:55;;;;;;;;;;;;;;;15.22;64.82;151476.56;1697068;84;20135;-63
2022/07/18 02:39:22;;;;;;;;;;;;;;;15.31;64.88;151499.97;1697193;84;20565;-63
2022/07/18 02:41:49;;;;;;;;;;;;;;;15.42;64.84;151527.31;1697215;83;20407;-63
2022/07/18 02:44:17;;;;;;;;;;;;;;;15.46;64.81;151537.73;1697264;84;20201;-63
2022/07/18 02:46:43;;;;;;;;;;;;;;;15.53;64.97;151554.66;1697217;84;21259;-64
2022/07/18 02:49:10;;;;;;;;;;;;;;;15.55;65.01;151559.88;1697110;83;20173;-63
2022/07/18 02:51:37;;;;;;;;;;;;;;;15.53;65.32;151554.66;1687000;84;20400;-63
2022/07/18 02:54:04;;;;;;;;;;;;;;;15.51;65.65;151549.47;1680789;85;20167;-62
2022/07/18 02:56:32;;;;;;;;;;;;;;;15.52;65.82;151552.06;1679780;84;20160;-63
2022/07/18 02:59:00;;;;;;;;;;;;;;;15.59;65.84;151570.33;1680832;85;21259;-63
2022/07/18 03:01:26;;;;;;;;;;;;;;;15.68;65.66;151593.75;1680517;84;20111;-61
2022/07/18 03:03:53;;;;;;;;;;;;;;;15.74;65.48;151608.09;1681550;84;20227;-61
2022/07/18 03:06:19;;;;;;;;;;;;;;;15.75;65.37;151611.97;1680964;85;20208;-61
2022/07/18 03:08:48;;;;;;;;;;;;;;;15.79;65.30;151619.78;1680095;85;20167;-61
2022/07/18 03:11:15;;;;;;;;;;;;;;;15.79;65.33;151621.09;1673026;84;21811;-61
2022/07/18 03:13:41;;;;;;;;;;;;;;;15.82;65.29;151627.63;1658188;86;20165;-62
2022/07/18 03:16:08;;;;;;;;;;;;;;;15.85;65.18;151636.72;1658344;86;20204;-62
2022/07/18 03:18:35;;;;;;;;;;;;;;;15.89;64.92;151645.91;1659577;84;20160;-61
2022/07/18 03:21:03;;;;;;;;;;;;;;;15.96;64.76;151664.13;1660527;85;20184;-62
2022/07/18 03:23:29;;;;;;;;;;;;;;;16.03;64.67;151682.39;1660501;85;21144;-61
2022/07/18 03:25:56;;;;;;;;;;;;;;;16.13;64.44;151705.81;1660354;86;20206;-61
2022/07/18 03:28:23;;;;;;;;;;;;;;;16.22;64.21;151729.25;1660412;86;20265;-62
2022/07/18 03:30:50;;;;;;;;;;;;;;;16.31;63.87;151751.41;1660491;86;20183;-62
2022/07/18 03:33:17;;;;;;;;;;;;;;;16.39;63.51;151770.95;1660570;85;20183;-61
2022/07/18 03:35:44;;;;;;;;;;;;;;;16.46;63.09;151789.19;1660778;85;21212;-61
2022/07/18 03:38:10;;;;;;;;;;;;;;;16.43;62.71;151781.38;1660634;85;20211;-61
2022/07/18 03:40:37;;;;;;;;;;;;;;;16.39;62.74;151772.28;1660913;86;20172;-61
2022/07/18 03:43:04;;;;;;;;;;;;;;;16.40;62.83;151773.55;1660736;86;20202;-61
2022/07/18 03:45:31;;;;;;;;;;;;;;;16.48;62.59;151794.44;1647399;86;20183;-62
2022/07/18 03:47:57;;;;;;;;;;;;;;;16.51;62.29;151802.25;1660629;84;21242;-61
2022/07/18 03:50:24;;;;;;;;;;;;;;;16.55;62.15;151812.66;1660449;84;20460;-62
2022/07/18 03:52:51;;;;;;;;;;;;;;;16.61;61.86;151828.28;1660754;86;20505;-63
2022/07/18 03:55:17;;;;;;;;;;;;;;;16.73;61.88;151856.98;1660855;84;20495;-63
2022/07/18 03:57:44;;;;;;;;;;;;;;;16.89;61.40;151898.66;1660751;86;20136;-62
2022/07/18 04:00:12;;;;;;;;;;;;;;;17.03;60.80;151932.61;1660679;86;21246;-63
2022/07/18 04:02:41;;;;;;;;;;;;;;;17.12;60.76;151956.05;1660711;85;20141;-62
2022/07/18 04:05:08;;;;;;;;;;;;;;;17.20;60.63;151975.61;1660554;86;20574;-62
2022/07/18 04:07:35;;;;;;;;;;;;;;;17.20;60.86;151974.33;1660729;86;20464;-61
2022/07/18 04:10:03;;;;;;;;;;;;;;;17.11;61.48;151953.45;1660777;85;20179;-62
2022/07/18 04:12:30;;;;;;;;;;;;;;;17.13;61.83;151958.70;1668610;84;21138;-61
2022/07/18 04:14:57;;;;;;;;;;;;;;;17.13;61.92;151957.38;1665347;84;20212;-62
2022/07/18 04:17:24;;;;;;;;;;;;;;;17.14;62.27;151961.31;1659492;84;20239;-61
2022/07/18 04:19:51;;;;;;;;;;;;;;;17.23;62.57;151983.44;1660696;86;20147;-62
2022/07/18 04:22:17;;;;;;;;;;;;;;;17.29;62.72;151997.78;1660889;84;20143;-61
2022/07/18 04:24:45;;;;;;;;;;;;;;;17.31;62.98;152003.00;1660844;84;21252;-61
2022/07/18 04:27:12;;;;;;;;;;;;;;;17.28;63.14;151995.17;1660735;85;20269;-61
2022/07/18 04:29:38;;;;;;;;;;;;;;;17.28;63.51;151995.17;1660742;85;20180;-61
2022/07/18 04:32:06;;;;;;;;;;;;;;;17.32;63.76;152005.59;1660802;85;20183;-61
2022/07/18 04:34:33;;;;;;;;;;;;;;;17.49;63.59;152047.33;1660809;86;20172;-61
2022/07/18 04:37:00;;;;;;;;;;;;;;;17.52;63.31;152055.16;1660661;84;21212;-61
2022/07/18 04:39:26;;;;;;;;;;;;;;;17.46;63.29;152042.12;1660615;85;20463;-61
2022/07/18 04:41:53;;;;;;;;;;;;;;;17.46;63.59;152042.12;1660961;85;20183;-61
2022/07/18 04:44:20;;;;;;;;;;;;;;;17.50;63.74;152049.94;1660709;86;20431;-62
2022/07/18 04:46:46;;;;;;;;;;;;;;;17.53;63.71;152059.08;1660940;86;20506;-62
2022/07/18 04:49:13;;;;;;;;;;;;;;;17.64;63.75;152086.47;1660970;85;22147;-62
2022/07/18 04:51:40;;;;;;;;;;;;;;;17.75;63.61;152115.13;1660947;84;20417;-62
2022/07/18 04:54:08;;;;;;;;;;;;;;;17.80;63.61;152125.61;1660871;86;20258;-62
2022/07/18 04:56:34;;;;;;;;;;;;;;;17.90;63.50;152151.67;1660671;85;20179;-61
2022/07/18 04:59:01;;;;;;;;;;;;;;;18.00;63.36;152177.73;1660590;85;20566;-62
2022/07/18 05:01:28;;;;;;;;;;;;;;;18.12;62.68;152206.50;1660570;85;21848;-62
2022/07/18 05:03:55;;;;;;;;;;;;;;;18.11;62.54;152203.89;1660312;86;20459;-62
2022/07/18 05:06:23;;;;;;;;;;;;;;;18.06;62.77;152190.86;1660481;86;20176;-60
2022/07/18 05:08:50;;;;;;;;;;;;;;;18.16;62.85;152216.92;1660671;84;20152;-61
2022/07/18 05:11:17;;;;;;;;;;;;;;;18.28;62.90;152248.25;1663518;84;20193;-61
2022/07/18 05:13:43;;;;;;;;;;;;;;;18.50;62.61;152301.72;1666330;86;22082;-61
2022/07/18 05:16:10;;;;;;;;;;;;;;;18.62;62.48;152333.06;1666239;86;20205;-62
2022/07/18 05:18:37;;;;;;;;;;;;;;;18.82;62.25;152383.94;1664259;84;20179;-62
2022/07/18 05:21:04;;;;;;;;;;;;;;;19.08;61.48;152449.23;1660572;86;20175;-62
2022/07/18 05:23:31;;;;;;;;;;;;;;;19.30;60.76;152504.06;1660655;85;20175;-62
2022/07/18 05:25:58;;;;;;;;;;;;;;;19.42;60.17;152535.42;1660638;86;21519;-62
2022/07/18 05:28:25;;;;;;;;;;;;;;;19.40;59.48;152530.20;1660643;86;20211;-62
2022/07/18 05:30:54;;;;;;;;;;;;;;;19.32;60.06;152510.61;1660743;85;20127;-62
2022/07/18 05:33:21;;;;;;;;;;;;;;;19.40;59.92;152530.20;1653047;84;20459;-62
2022/07/18 05:35:47;;;;;;;;;;;;;;;19.47;59.78;152548.47;1652097;84;20496;-62
2022/07/18 05:38:14;;;;;;;;;;;;;;;19.61;59.53;152582.42;1639591;85;21248;-63
2022/07/18 05:40:42;;;;;;;;;;;;;;;19.71;58.87;152608.52;1643524;84;20136;-63
2022/07/18 05:43:09;;;;;;;;;;;;;;;19.79;58.18;152626.84;1641308;86;20860;-63
2022/07/18 05:45:36;;;;;;;;;;;;;;;19.87;57.69;152647.70;1641744;85;20796;-63
2022/07/18 05:48:25;;;;;;;;;;;;;;;20.00;57.67;152681.69;1653084;85;20193;-64
2022/07/18 05:50:52;;;;;;;;;;;;;;;20.18;56.98;152726.09;1741964;81;21216;-63
2022/07/18 05:53:19;;;;;;;;;;;;;;;20.22;56.57;152736.55;1739071;81;20187;-63
2022/07/18 05:55:45;;;;;;;;;;;;;;;20.25;56.21;152744.42;1737347;81;20171;-63
2022/07/18 05:58:12;;;;;;;;;;;;;;;20.26;56.30;152747.03;1733703;82;20561;-64
2022/07/18 06:00:40;;;;;;;;;;;;;;;20.34;56.25;152766.63;1695364;83;20211;-63
2022/07/18 06:03:09;;;;;;;;;;;;;;;20.35;56.11;152767.91;1726133;81;21233;-63
2022/07/18 06:05:36;;;;;;;;;;;;;;;20.41;56.26;152783.58;1727118;82;20456;-64
2022/07/18 06:08:04;;;;;;;;;;;;;;;20.47;55.52;152799.28;1724842;82;20712;-63
2022/07/18 06:10:31;;;;;;;;;;;;;;;20.49;55.59;152804.50;1725301;82;20718;-64
2022/07/18 06:12:58;;;;;;;;;;;;;;;20.57;55.08;152825.39;1722100;81;20220;-64
2022/07/18 06:15:24;;;;;;;;;;;;;;;20.56;54.06;152822.78;1727462;81;21240;-64
2022/07/18 06:17:52;;;;;;;;;;;;;;;20.56;53.91;152822.78;1729976;82;20253;-64
2022/07/18 06:20:19;;;;;;;;;;;;;;;20.64;54.12;152841.06;1725470;81;20188;-64
2022/07/18 06:22:45;;;;;;;;;;;;;;;20.74;53.48;152867.22;1724715;82;20161;-64
2022/07/18 06:25:12;;;;;;;;;;;;;;;20.69;53.27;152854.16;1728189;82;20171;-62
2022/07/18 06:27:39;;;;;;;;;;;;;;;20.66;53.04;152846.28;1726062;82;21130;-62
2022/07/18 06:30:09;;;;;;;;;;;;;;;20.67;53.12;152848.89;1727832;82;20246;-62
2022/07/18 06:32:37;;;;;;;;;;;;;;;20.70;52.25;152856.78;1733064;82;20234;-62
2022/07/18 06:35:21;;;;;;;;;;;;;;;20.66;51.91;152847.61;1724620;81;20186;-62
2022/07/18 06:37:50;;;;;;;;;;;;;;;20.60;52.03;152833.22;1717299;81;20180;-62
2022/07/18 06:40:17;;;;;;;;;;;;;;;20.69;51.39;152855.44;1730864;82;21155;-62
2022/07/18 06:42:44;;;;;;;;;;;;;;;20.78;51.28;152877.66;1728086;81;20435;-61
2022/07/18 06:45:11;;;;;;;;;;;;;;;20.88;50.04;152903.81;1733465;82;20470;-61
2022/07/18 06:47:39;;;;;;;;;;;;;;;20.85;49.26;152895.98;1730531;82;20424;-61
2022/07/18 06:50:07;;;;;;;;;;;;;;;20.82;49.86;152886.88;1721079;81;20149;-61
2022/07/18 06:52:38;;;;;;;;;;;;;;;20.87;48.36;152901.22;1705626;83;20183;-62
2022/07/18 06:55:06;;;;;;;;;;;;;;;20.82;48.29;152888.16;1726015;83;20303;-61
2022/07/18 06:57:32;;;;;;;;;;;;;;;20.77;48.83;152875.05;1717255;82;20516;-61
2022/07/18 06:59:59;;;;;;;;;;;;;;;20.85;47.82;152895.98;1714081;83;20744;-63
2022/07/18 07:02:26;;;;;;;;;;;;;;;20.91;48.02;152909.09;1718859;82;20204;-63
2022/07/18 07:04:53;;;;;;;;;;;;;;;21.10;48.42;152958.70;1724049;81;21248;-63
2022/07/18 07:07:19;;;;;;;;;;;;;;;21.30;47.86;153008.38;1701963;82;20252;-63
2022/07/18 07:09:47;;;;;;;;;;;;;;;21.43;46.33;153041.06;1703432;83;20152;-63
2022/07/18 07:12:13;;;;;;;;;;;;;;;21.41;46.54;153037.16;1702027;83;20193;-62
2022/07/18 07:14:40;;;;;;;;;;;;;;;21.40;46.00;153034.55;1703686;83;20122;-63
2022/07/18 07:17:07;;;;;;;;;;;;;;;21.30;45.49;153008.38;1701539;83;21122;-63
2022/07/18 07:19:34;;;;;;;;;;;;;;;21.18;46.76;152978.33;1700138;82;20200;-62
2022/07/18 07:22:01;;;;;;;;;;;;;;;21.23;45.84;152991.42;1708296;83;20178;-64
2022/07/18 07:24:28;;;;;;;;;;;;;;;21.32;45.84;153013.61;1718707;83;20548;-64
2022/07/18 07:26:55;;;;;;;;;;;;;;;21.38;44.96;153029.33;1722382;82;20229;-64
2022/07/18 07:29:21;;;;;;;;;;;;;;;21.32;45.34;153013.61;1721962;83;21052;-64
2022/07/18 07:31:48;;;;;;;;;;;;;;;21.30;46.02;153009.72;1707573;82;20187;-64
2022/07/18 07:34:15;;;;;;;;;;;;;;;21.40;45.95;153034.55;1718589;83;20424;-64
2022/07/18 07:36:42;;;;;;;;;;;;;;;21.59;45.35;153081.63;1692449;84;20646;-63
2022/07/18 07:39:09;;;;;;;;;;;;;;;21.61;45.11;153088.13;1704608;83;20141;-63
2022/07/18 07:41:36;;;;;;;;;;;;;;;21.67;44.46;153102.56;1703852;83;22285;-62
2022/07/18 07:44:04;;;;;;;;;;;;;;;21.63;44.59;153092.06;1706667;82;20201;-63
2022/07/18 07:46:32;;;;;;;;;;;;;;;21.61;44.92;153088.13;1704650;82;20144;-62
2022/07/18 07:48:58;;;;;;;;;;;;;;;21.63;45.53;153092.06;1703469;82;20457;-62
2022/07/18 07:51:27;;;;;;;;;;;;;;;21.72;45.30;153115.63;1718000;81;20224;-63
2022/07/18 07:53:54;;;;;;;;;;;;;;;21.83;45.03;153141.81;1703667;83;22359;-62
2022/07/18 07:56:22;;;;;;;;;;;;;;;21.88;43.92;153156.20;1699872;83;20511;-63
2022/07/18 07:58:49;;;;;;;;;;;;;;;21.80;44.55;153133.97;1702470;83;20209;-63
2022/07/18 08:01:19;;;;;;;;;;;;;;;21.81;44.62;153136.58;1702262;83;20469;-63
2022/07/18 08:03:46;;;;;;;;;;;;;;;21.91;44.12;153162.72;1699753;81;20195;-63
2022/07/18 08:06:12;;;;;;;;;;;;;;;21.98;44.03;153181.00;1703183;83;21275;-63
2022/07/18 08:08:40;;;;;;;;;;;;;;;22.07;44.48;153201.95;1702967;83;20281;-63
2022/07/18 08:11:08;;;;;;;;;;;;;;;22.20;44.92;153235.92;1710409;83;20222;-63
2022/07/18 08:13:35;;;;;;;;;;;;;;;22.32;44.34;153267.33;1700428;82;20221;-63
2022/07/18 08:16:02;;;;;;;;;;;;;;;22.29;43.98;153259.50;1709973;81;20224;-63
2022/07/18 08:18:29;;;;;;;;;;;;;;;22.23;44.32;153242.48;1711074;83;21245;-63
2022/07/18 08:20:56;;;;;;;;;;;;;;;22.22;44.74;153241.20;1700531;83;20519;-62
2022/07/18 08:23:24;;;;;;;;;;;;;;;22.30;44.08;153262.11;1700514;83;20232;-63
2022/07/18 08:25:51;;;;;;;;;;;;;;;22.39;44.05;153283.02;1701084;83;20507;-63
2022/07/18 08:28:18;;;;;;;;;;;;;;;22.50;43.93;153311.88;1701371;83;20216;-63
2022/07/18 08:30:45;;;;;;;;;;;;;;;22.51;43.34;153314.48;1701402;83;21338;-64
2022/07/18 08:33:12;;;;;;;;;;;;;;;22.48;43.18;153306.64;1702257;83;20532;-62
2022/07/18 08:35:39;;;;;;;;;;;;;;;22.50;43.55;153310.53;1702805;83;20173;-63
2022/07/18 08:38:06;;;;;;;;;;;;;;;22.50;43.42;153311.88;1703167;83;20203;-63
2022/07/18 08:40:35;;;;;;;;;;;;;;;22.61;42.98;153339.34;1702228;83;20259;-63
2022/07/18 08:43:01;;;;;;;;;;;;;;;22.73;42.29;153369.42;1702314;83;21189;-63
2022/07/18 08:45:28;;;;;;;;;;;;;;;22.71;42.32;153365.47;1702768;83;20547;-62
2022/07/18 08:47:55;;;;;;;;;;;;;;;22.73;43.06;153369.42;1701727;83;20179;-62
2022/07/18 08:50:23;;;;;;;;;;;;;;;22.75;43.32;153374.66;1711089;83;20485;-63
2022/07/18 08:52:50;;;;;;;;;;;;;;;22.81;43.47;153389.06;1704622;83;20153;-63
2022/07/18 08:55:17;;;;;;;;;;;;;;;22.91;43.23;153413.91;1703185;83;22054;-63
2022/07/18 08:57:44;;;;;;;;;;;;;;;22.89;42.91;153411.30;1701547;83;20189;-64
2022/07/18 09:00:11;;;;;;;;;;;;;;;22.98;42.53;153433.50;1704052;83;20200;-63
2022/07/18 09:02:38;;;;;;;;;;;;;;;23.09;42.19;153460.98;1703576;83;20673;-63
2022/07/18 09:05:10;;;;;;;;;;;;;;;23.09;42.41;153460.98;1704429;83;20216;-64
2022/07/18 09:07:37;;;;;;;;;;;;;;;23.16;43.10;153478.00;1701078;83;21762;-63
2022/07/18 09:10:05;;;;;;;;;;;;;;;23.20;41.82;153487.17;1720611;82;20168;-63
2022/07/18 09:12:32;;;;;;;;;;;;;;;23.22;41.25;153492.41;1711425;82;20164;-63
2022/07/18 09:15:07;;;;;;;;;;;;;;;23.21;41.13;153489.78;1690165;83;20208;-64
2022/07/18 09:17:35;;;;;;;;;;;;;;;23.19;41.79;153485.84;1696167;83;20262;-63
2022/07/18 09:20:11;;;;;;;;;;;;;;;23.19;42.15;153485.84;1698232;83;21131;-63
2022/07/18 09:22:39;;;;;;;;;;;;;;;23.35;41.52;153526.50;1713425;83;20260;-63
2022/07/18 09:25:12;;;;;;;;;;;;;;;23.51;41.13;153565.72;1721865;82;20154;-63
2022/07/18 09:27:44;;;;;;;;;;;;;;;23.52;40.92;153568.34;1720528;83;20158;-63
2022/07/18 09:30:32;;;;;;;;;;;;;;;23.54;41.37;153573.56;1703684;83;20211;-63
2022/07/18 09:33:06;;;;;;;;;;;;;;;23.63;40.89;153597.16;1670112;85;20171;-62
2022/07/18 09:35:38;;;;;;;;;;;;;;;23.60;40.22;153590.59;1709945;83;20491;-63
2022/07/18 09:38:08;;;;;;;;;;;;;;;23.54;40.20;153574.91;1713002;83;20203;-62
2022/07/18 09:40:36;;;;;;;;;;;;;;;23.58;40.80;153584.09;1711338;83;20243;-64
2022/07/18 09:43:05;;;;;;;;;;;;;;;23.72;39.84;153619.42;1713381;83;20474;-64
2022/07/18 09:45:33;;;;;;;;;;;;;;;23.73;39.61;153623.31;1711963;83;21196;-64
2022/07/18 09:48:07;;;;;;;;;;;;;;;23.77;39.72;153632.50;1712906;82;20246;-63
2022/07/18 09:50:36;;;;;;;;;;;;;;;23.82;39.94;153644.30;1720954;82;20169;-63
2022/07/18 09:53:12;;;;;;;;;;;;;;;23.95;40.30;153678.31;1737901;80;20227;-63
2022/07/18 09:55:47;;;;;;;;;;;;;;;24.14;39.21;153725.50;1727102;82;20205;-63
2022/07/18 09:58:17;;;;;;;;;;;;;;;24.18;38.51;153737.28;1724220;82;21146;-63
2022/07/18 10:00:44;;;;;;;;;;;;;;;24.26;38.42;153756.94;1719754;82;20202;-63
2022/07/18 10:03:11;;;;;;;;;;;;;;;24.45;38.24;153805.38;1725863;82;20178;-64
2022/07/18 10:05:39;;;;;;;;;;;;;;;24.50;38.26;153815.84;1734825;82;20219;-63
2022/07/18 10:08:13;;;;;;;;;;;;;;;24.41;37.41;153793.56;1731342;82;21059;-63
2022/07/18 10:10:43;;;;;;;;;;;;;;;24.30;37.68;153767.41;1723752;81;21184;-65
2022/07/18 10:13:10;;;;;;;;;;;;;;;24.24;37.20;153750.38;1733270;81;20206;-63
2022/07/18 10:15:41;;;;;;;;;;;;;;;24.28;37.26;153762.17;1735193;81;20451;-65
2022/07/18 10:18:10;;;;;;;;;;;;;;;24.34;37.43;153776.59;1737476;81;20202;-63
2022/07/18 10:20:39;;;;;;;;;;;;;;;24.44;38.03;153802.75;1728004;81;20206;-66
2022/07/18 10:23:20;;;;;;;;;;;;;;;24.54;37.95;153827.64;1733497;82;21236;-65
2022/07/18 10:26:10;;;;;;;;;;;;;;;24.65;37.33;153853.81;1724659;81;20195;-66
2022/07/18 10:28:50;;;;;;;;;;;;;;;24.71;37.16;153869.56;1738973;82;20514;-64
2022/07/18 10:31:16;;;;;;;;;;;;;;;24.80;36.37;153893.17;1712184;82;20557;-65
2022/07/18 10:33:47;;;;;;;;;;;;;;;24.79;36.82;153889.27;1745417;82;20198;-66
2022/07/18 10:36:16;;;;;;;;;;;;;;;24.77;36.73;153885.31;1728226;82;21274;-66
2022/07/18 10:39:30;;;;;;;;;;;;;;;24.76;36.67;153882.70;1728023;81;20221;-66
2022/07/18 10:41:49;;;;;;;;;;;;;;;24.76;36.58;153882.70;1720937;82;20236;-67
2022/07/18 10:44:29;;;;;;;;;;;;;;;24.86;35.50;153908.88;1726075;82;20445;-66
2022/07/18 10:47:23;;;;;;;;;;;;;;;24.89;35.76;153915.44;1726567;81;20408;-66
2022/07/18 10:49:59;;;;;;;;;;;;;;;24.92;35.91;153923.30;1736341;81;21223;-66
2022/07/18 10:52:36;;;;;;;;;;;;;;;24.98;35.41;153937.72;1717360;81;20343;-66
2022/07/18 10:55:08;;;;;;;;;;;;;;;24.98;36.04;153937.72;1706450;84;20169;-66
2022/07/18 10:57:39;;;;;;;;;;;;;;;24.96;36.21;153933.77;1703077;84;20202;-66
2022/07/18 11:00:11;;;;;;;;;;;;;;;24.96;36.37;153933.77;1702995;83;20840;-66
2022/07/18 11:02:45;;;;;;;;;;;;;;;25.09;36.52;153965.22;1702799;84;21971;-66
2022/07/18 11:05:27;;;;;;;;;;;;;;;25.17;36.72;153987.50;1700573;84;20149;-66
2022/07/18 11:08:08;;;;;;;;;;;;;;;25.25;36.10;154005.83;1702351;83;20152;-66
2022/07/18 11:10:50;;;;;;;;;;;;;;;25.23;35.81;154000.59;1698827;83;20251;-66
2022/07/18 11:13:30;;;;;;;;;;;;;;;25.21;36.22;153996.69;1705507;83;20195;-65
2022/07/18 11:16:12;;;;;;;;;;;;;;;25.21;36.25;153996.69;1691211;84;21221;-66
2022/07/18 11:18:43;;;;;;;;;;;;;;;25.38;36.02;154039.91;1693017;83;20498;-66
2022/07/18 11:21:25;;;;;;;;;;;;;;;25.44;35.76;154054.34;1672432;84;20164;-66
2022/07/18 11:24:05;;;;;;;;;;;;;;;25.39;36.09;154042.53;1690001;84;20657;-66
2022/07/18 11:26:33;;;;;;;;;;;;;;;25.37;36.19;154035.97;1695221;83;20189;-66
2022/07/18 11:29:05;;;;;;;;;;;;;;;25.39;36.31;154042.53;1691291;84;21215;-64
2022/07/18 11:31:32;;;;;;;;;;;;;;;25.46;35.95;154060.86;1702042;83;20611;-65
2022/07/18 11:34:00;;;;;;;;;;;;;;;25.53;35.74;154077.95;1701654;83;20208;-65
2022/07/18 11:36:32;;;;;;;;;;;;;;;25.53;35.98;154076.63;1703688;83;20167;-65
2022/07/18 11:38:59;;;;;;;;;;;;;;;25.41;35.62;154047.77;1701826;83;20194;-66
2022/07/18 11:41:26;;;;;;;;;;;;;;;25.25;35.86;154005.83;1705278;83;21194;-66
2022/07/18 11:43:53;;;;;;;;;;;;;;;25.10;36.32;153969.17;1704887;82;20269;-66
2022/07/18 11:46:26;;;;;;;;;;;;;;;25.01;36.22;153945.56;1711936;83;20192;-66
2022/07/18 11:49:06;;;;;;;;;;;;;;;25.04;36.43;153953.42;1706362;83;20626;-66
2022/07/18 11:51:44;;;;;;;;;;;;;;;25.06;36.20;153957.38;1709580;82;20183;-64
2022/07/18 11:54:10;;;;;;;;;;;;;;;25.08;36.17;153962.61;1707344;81;21141;-65
2022/07/18 11:56:53;;;;;;;;;;;;;;;25.18;36.02;153990.13;1707509;81;20510;-66
2022/07/18 11:59:20;;;;;;;;;;;;;;;25.29;35.52;154016.30;1738418;82;20127;-66
2022/07/18 12:01:52;;;;;;;;;;;;;;;25.41;35.75;154047.77;1721639;81;20176;-66
2022/07/18 12:04:21;;;;;;;;;;;;;;;25.36;35.13;154033.34;1735072;81;20241;-66
2022/07/18 12:07:19;;;;;;;;;;;;;;;25.21;35.11;153996.69;1733362;81;21197;-66
2022/07/18 12:09:49;;;;;;;;;;;;;;;25.19;35.51;153991.41;1737523;81;20325;-64
2022/07/18 12:12:19;;;;;;;;;;;;;;;25.29;35.61;154016.30;1744712;80;20265;-65
2022/07/18 12:14:57;;;;;;;;;;;;;;;25.39;35.27;154042.53;1741129;81;20202;-65
2022/07/18 12:17:24;;;;;;;;;;;;;;;25.39;35.57;154042.53;1741152;81;20200;-65
2022/07/18 12:19:51;;;;;;;;;;;;;;;25.44;35.71;154054.34;1730351;82;21213;-64
2022/07/18 12:22:18;;;;;;;;;;;;;;;25.33;35.23;154026.83;1735476;82;20246;-65
2022/07/18 12:24:54;;;;;;;;;;;;;;;25.26;35.62;154008.45;1738433;81;20234;-65
2022/07/18 12:27:24;;;;;;;;;;;;;;;25.41;35.56;154047.77;1736753;82;20231;-66
2022/07/18 12:30:19;;;;;;;;;;;;;;;25.58;34.95;154089.77;1739668;81;20164;-66
2022/07/18 12:32:54;;;;;;;;;;;;;;;25.62;34.36;154100.23;1737182;81;20400;-66
2022/07/18 12:35:24;;;;;;;;;;;;;;;25.58;34.40;154089.77;1745690;82;20450;-65
2022/07/18 12:38:12;;;;;;;;;;;;;;;25.60;34.47;154096.28;1735699;82;20623;-65
2022/07/18 12:40:48;;;;;;;;;;;;;;;25.71;34.14;154122.52;1735285;81;20199;-65
2022/07/18 12:43:18;;;;;;;;;;;;;;;25.86;34.37;154160.52;1733394;81;20182;-65
2022/07/18 12:45:44;;;;;;;;;;;;;;;25.97;33.74;154189.33;1730501;82;22184;-65
2022/07/18 12:48:11;;;;;;;;;;;;;;;26.02;33.47;154202.47;1738236;81;20265;-65